createdAt,value
2022-08-21T00:00:17.722Z,96599.16
2022-08-21T00:02:50.801Z,96599.16
2022-08-21T00:05:17.754Z,96600.47
2022-08-21T00:07:44.513Z,96606.19
2022-08-21T00:10:12.355Z,96612.53
2022-08-21T00:12:39.692Z,96607.81
2022-08-21T00:15:08.625Z,96612.75
2022-08-21T00:17:35.672Z,96611.44
2022-08-21T00:20:04.309Z,96606.81
2022-08-21T00:22:30.967Z,96610.69
2022-08-21T00:24:57.617Z,96602.66
2022-08-21T00:27:24.185Z,96602.44
2022-08-21T00:29:50.777Z,96600.09
2022-08-21T00:32:22.617Z,96608.75
2022-08-21T00:34:49.189Z,96616.00
2022-08-21T00:37:15.858Z,96612.91
2022-08-21T00:39:42.581Z,96612.91
2022-08-21T00:42:09.417Z,96620.63
2022-08-21T00:44:36.174Z,96626.56
2022-08-21T00:47:02.964Z,96630.97
2022-08-21T00:49:29.543Z,96629.88
2022-08-21T00:52:01.958Z,96626.34
2022-08-21T00:54:32.265Z,96646.31
2022-08-21T00:57:05.843Z,96641.22
2022-08-21T00:59:38.352Z,96635.34
2022-08-21T01:02:08.193Z,96634.06
2022-08-21T01:04:35.505Z,96634.34
2022-08-21T01:07:02.401Z,96632.59
2022-08-21T01:09:29.146Z,96619.72
2022-08-21T01:11:55.792Z,96619.72
2022-08-21T01:14:23.773Z,96620.19
2022-08-21T01:16:53.897Z,96611.84
2022-08-21T01:19:22.360Z,96616.25
2022-08-21T01:21:49.524Z,96602.84
2022-08-21T01:24:16.195Z,96601.06
2022-08-21T01:26:45.055Z,96599.97
2022-08-21T01:29:23.943Z,96602.59
2022-08-21T01:31:50.679Z,96595.34
2022-08-21T01:34:18.066Z,96592.50
2022-08-21T01:36:45.608Z,96590.63
2022-08-21T01:39:13.187Z,96592.72
2022-08-21T01:41:39.870Z,96590.09
2022-08-21T01:44:06.497Z,96588.78
2022-08-21T01:46:33.387Z,96585.94
2022-08-21T01:48:59.996Z,96586.50
2022-08-21T01:51:26.653Z,96583.72
2022-08-21T01:53:53.301Z,96579.63
2022-08-21T01:56:20.071Z,96586.75
2022-08-21T01:58:48.205Z,96575.09
2022-08-21T02:01:15.010Z,96570.47
2022-08-21T02:03:42.309Z,96567.63
2022-08-21T02:06:15.968Z,96565.84
2022-08-21T02:08:42.591Z,96573.78
2022-08-21T02:11:09.194Z,96567.63
2022-08-21T02:13:35.906Z,96553.16
2022-08-21T02:16:02.702Z,96555.91
2022-08-21T02:18:29.306Z,96569.63
2022-08-21T02:20:56.798Z,96567.63
2022-08-21T02:23:27.333Z,96562.69
2022-08-21T02:26:06.271Z,96563.00
2022-08-21T02:28:33.508Z,96564.00
2022-08-21T02:31:00.322Z,96564.56
2022-08-21T02:33:28.131Z,96571.78
2022-08-21T02:35:55.525Z,96578.25
2022-08-21T02:38:23.705Z,96572.88
2022-08-21T02:40:51.998Z,96573.19
2022-08-21T02:43:20.545Z,96570.03
2022-08-21T02:45:48.405Z,96562.53
2022-08-21T02:48:19.355Z,96561.03
2022-08-21T02:50:48.900Z,96559.75
2022-08-21T02:53:17.777Z,96567.31
2022-08-21T02:55:49.763Z,96574.72
2022-08-21T02:58:21.027Z,96570.09
2022-08-21T03:00:48.067Z,96567.91
2022-08-21T03:03:15.704Z,96573.94
2022-08-21T03:05:42.879Z,96572.09
2022-08-21T03:08:12.241Z,96574.28
2022-08-21T03:10:41.461Z,96580.44
2022-08-21T03:13:08.970Z,96572.09
2022-08-21T03:15:35.939Z,96576.94
2022-08-21T03:18:04.591Z,96581.91
2022-08-21T03:20:32.025Z,96585.69
2022-08-21T03:22:59.792Z,96579.66
2022-08-21T03:25:40.068Z,96586.59
2022-08-21T03:28:12.980Z,96594.38
2022-08-21T03:30:42.224Z,96591.38
2022-08-21T03:33:08.844Z,96597.53
2022-08-21T03:35:39.027Z,96596.22
2022-08-21T03:38:05.710Z,96592.28
2022-08-21T03:40:32.678Z,96601.31
2022-08-21T03:42:59.933Z,96601.53
2022-08-21T03:45:27.000Z,96613.94
2022-08-21T03:47:58.794Z,96605.94
2022-08-21T03:50:27.850Z,96593.22
2022-08-21T03:52:54.554Z,96585.97
2022-08-21T03:55:21.256Z,96595.50
2022-08-21T03:57:47.872Z,96597.84
2022-08-21T04:00:15.997Z,96602.31
2022-08-21T04:02:44.719Z,96599.91
2022-08-21T04:05:14.103Z,96593.22
2022-08-21T04:07:40.844Z,96597.91
2022-08-21T04:10:08.574Z,96601.22
2022-08-21T04:12:35.445Z,96603.31
2022-08-21T04:15:03.063Z,96607.47
2022-08-21T04:17:29.740Z,96604.63
2022-08-21T04:19:56.364Z,96603.53
2022-08-21T04:22:23.339Z,96608.78
2022-08-21T04:24:50.838Z,96606.41
2022-08-21T04:27:17.441Z,96613.09
2022-08-21T04:29:44.016Z,96619.97
2022-08-21T04:32:10.661Z,96620.38
2022-08-21T04:34:37.428Z,96620.03
2022-08-21T04:37:04.669Z,96613.28
2022-08-21T04:39:31.172Z,96607.69
2022-08-21T04:41:57.838Z,96616.03
2022-08-21T04:44:24.580Z,96627.88
2022-08-21T04:46:51.179Z,96630.41
2022-08-21T04:49:17.812Z,96624.69
2022-08-21T04:51:44.973Z,96621.94
2022-08-21T04:54:21.056Z,96639.63
2022-08-21T04:57:00.687Z,96629.13
2022-08-21T04:59:41.858Z,96635.44
2022-08-21T05:02:10.026Z,96634.25
2022-08-21T05:04:40.514Z,96624.53
2022-08-21T05:07:11.354Z,96632.84
2022-08-21T05:09:39.169Z,96629.78
2022-08-21T05:12:06.715Z,96635.53
2022-08-21T05:14:34.045Z,96648.88
2022-08-21T05:17:00.533Z,96641.94
2022-08-21T05:19:27.639Z,96639.31
2022-08-21T05:21:54.713Z,96635.28
2022-08-21T05:24:21.437Z,96633.91
2022-08-21T05:26:48.317Z,96630.97
2022-08-21T05:29:16.522Z,96623.09
2022-08-21T05:31:43.673Z,96635.19
2022-08-21T05:34:10.325Z,96644.75
2022-08-21T05:36:37.070Z,96638.94
2022-08-21T05:39:04.471Z,96637.44
2022-08-21T05:41:31.235Z,96639.66
2022-08-21T05:44:00.974Z,96640.81
2022-08-21T05:46:27.738Z,96637.31
2022-08-21T05:48:54.391Z,96632.72
2022-08-21T05:51:21.145Z,96640.31
2022-08-21T05:53:48.467Z,96639.53
2022-08-21T05:56:15.679Z,96634.19
2022-08-21T05:58:43.129Z,96641.50
2022-08-21T06:01:10.102Z,96633.31
2022-08-21T06:03:39.767Z,96635.69
2022-08-21T06:06:06.690Z,96633.66
2022-08-21T06:08:33.637Z,96634.78
2022-08-21T06:11:01.607Z,96622.97
2022-08-21T06:13:29.397Z,96628.00
2022-08-21T06:16:23.553Z,96623.06
2022-08-21T06:18:50.598Z,96634.50
2022-08-21T06:21:17.413Z,96630.09
2022-08-21T06:23:44.769Z,96624.72
2022-08-21T06:26:13.800Z,96622.31
2022-08-21T06:28:42.054Z,96623.31
2022-08-21T06:31:21.337Z,96616.94
2022-08-21T06:33:48.905Z,96617.31
2022-08-21T06:36:15.717Z,96617.13
2022-08-21T06:38:50.866Z,96622.75
2022-08-21T06:41:18.320Z,96619.09
2022-08-21T06:43:51.583Z,96629.53
2022-08-21T06:46:18.043Z,96632.59
2022-08-21T06:48:44.645Z,96636.81
2022-08-21T06:51:11.299Z,96629.22
2022-08-21T06:53:37.987Z,96626.94
2022-08-21T06:56:05.426Z,96623.59
2022-08-21T06:58:32.056Z,96627.06
2022-08-21T07:01:00.991Z,96628.44
2022-08-21T07:03:32.468Z,96629.03
2022-08-21T07:05:59.367Z,96631.69
2022-08-21T07:08:27.897Z,96632.47
2022-08-21T07:10:57.046Z,96631.66
2022-08-21T07:13:24.317Z,96642.75
2022-08-21T07:15:51.324Z,96629.59
2022-08-21T07:18:18.117Z,96632.47
2022-08-21T07:20:44.782Z,96625.38
2022-08-21T07:23:27.418Z,96610.56
2022-08-21T07:25:54.011Z,96615.88
2022-08-21T07:28:20.836Z,96616.72
2022-08-21T07:30:52.553Z,96612.13
2022-08-21T07:33:19.197Z,96611.38
2022-08-21T07:35:45.796Z,96614.06
2022-08-21T07:38:12.394Z,96617.63
2022-08-21T07:40:39.837Z,96612.69
2022-08-21T07:43:06.457Z,96610.56
2022-08-21T07:45:33.750Z,96606.69
2022-08-21T07:48:00.342Z,96600.88
2022-08-21T07:50:27.085Z,96597.75
2022-08-21T07:52:53.811Z,96597.31
2022-08-21T07:55:21.565Z,96591.03
2022-08-21T07:57:48.921Z,96591.94
2022-08-21T08:00:18.960Z,96588.50
2022-08-21T08:02:52.726Z,96587.75
2022-08-21T08:05:22.875Z,96585.91
2022-08-21T08:07:49.679Z,96591.53
2022-08-21T08:10:17.375Z,96588.44
2022-08-21T08:12:45.289Z,96581.72
2022-08-21T08:15:18.739Z,96581.44
2022-08-21T08:17:45.410Z,96586.25
2022-08-21T08:20:14.120Z,96580.53
2022-08-21T08:22:42.315Z,96579.47
2022-08-21T08:25:11.421Z,96580.72
2022-08-21T08:27:38.497Z,96582.38
2022-08-21T08:30:06.080Z,96577.72
2022-08-21T08:32:32.893Z,96577.06
2022-08-21T08:34:59.461Z,96584.38
2022-08-21T08:37:27.762Z,96578.25
2022-08-21T08:40:01.953Z,96573.41
2022-08-21T08:42:37.985Z,96575.84
2022-08-21T08:45:12.109Z,96571.88
2022-08-21T08:47:50.720Z,96564.72
2022-08-21T08:50:29.006Z,96565.00
2022-08-21T08:53:02.959Z,96557.59
2022-08-21T08:55:41.993Z,96561.69
2022-08-21T08:58:18.000Z,96565.78
2022-08-21T09:00:48.279Z,96567.31
2022-08-21T09:03:16.538Z,96557.72
2022-08-21T09:05:50.679Z,96556.44
2022-08-21T09:08:41.902Z,96559.53
2022-08-21T09:11:37.445Z,96554.69
2022-08-21T09:14:07.036Z,96551.66
2022-08-21T09:17:20.714Z,96538.91
2022-08-21T09:20:11.158Z,96539.56
2022-08-21T09:22:43.783Z,96531.19
2022-08-21T09:25:23.992Z,96528.13
2022-08-21T09:27:51.787Z,96522.34
2022-08-21T09:30:20.380Z,96523.22
2022-08-21T09:32:46.989Z,96516.47
2022-08-21T09:35:20.756Z,96518.03
2022-08-21T09:37:59.046Z,96503.97
2022-08-21T09:40:45.500Z,96507.53
2022-08-21T09:43:12.013Z,96511.03
2022-08-21T09:45:40.453Z,96508.84
2022-08-21T09:48:18.671Z,96517.22
2022-08-21T09:50:46.045Z,96503.66
2022-08-21T09:53:35.520Z,96499.75
2022-08-21T09:56:35.638Z,96499.84
2022-08-21T09:59:12.972Z,96498.50
2022-08-21T10:01:45.600Z,96482.84
2022-08-21T10:04:12.757Z,96489.91
2022-08-21T10:06:39.738Z,96482.47
2022-08-21T10:09:21.038Z,96481.84
2022-08-21T10:12:13.604Z,96481.03
2022-08-21T10:14:45.903Z,96484.25
2022-08-21T10:17:24.477Z,96477.69
2022-08-21T10:20:09.132Z,96461.03
2022-08-21T10:22:50.221Z,96472.50
2022-08-21T10:25:27.071Z,96475.44
2022-08-21T10:27:56.326Z,96476.13
2022-08-21T10:30:52.743Z,96472.63
2022-08-21T10:33:19.308Z,96484.31
2022-08-21T10:35:58.821Z,96475.00
2022-08-21T10:39:02.634Z,96474.31
2022-08-21T10:41:59.360Z,96470.50
2022-08-21T10:44:47.311Z,96457.38
2022-08-21T10:47:25.618Z,96467.44
2022-08-21T10:50:11.492Z,96461.00
2022-08-21T10:53:15.582Z,96450.75
2022-08-21T10:55:49.279Z,96442.53
2022-08-21T10:58:25.603Z,96436.03
2022-08-21T11:00:57.258Z,96444.31
2022-08-21T11:03:40.036Z,96442.41
2022-08-21T11:06:30.866Z,96443.00
2022-08-21T11:09:25.305Z,96441.47
2022-08-21T11:11:59.499Z,96431.50
2022-08-21T11:14:50.498Z,96434.56
2022-08-21T11:17:22.404Z,96431.13
2022-08-21T11:20:03.064Z,96427.84
2022-08-21T11:22:38.623Z,96443.16
2022-08-21T11:25:10.386Z,96453.50
2022-08-21T11:27:50.003Z,96458.91
2022-08-21T11:30:17.363Z,96456.56
2022-08-21T11:33:18.213Z,96458.25
2022-08-21T11:35:50.572Z,96459.59
2022-08-21T11:38:27.843Z,96455.38
2022-08-21T11:41:08.220Z,96446.13
2022-08-21T11:43:37.890Z,96452.22
2022-08-21T11:46:46.597Z,96456.38
2022-08-21T11:49:22.396Z,96470.38
2022-08-21T11:52:09.064Z,96470.59
2022-08-21T11:55:01.920Z,96475.19
2022-08-21T11:57:56.072Z,96486.53
2022-08-21T12:00:56.933Z,96473.44
2022-08-21T12:03:34.095Z,96464.72
2022-08-21T12:06:08.586Z,96457.75
2022-08-21T12:08:37.567Z,96457.00
2022-08-21T12:11:10.237Z,96453.91
2022-08-21T12:14:02.008Z,96448.66
2022-08-21T12:16:40.679Z,96454.19
2022-08-21T12:19:20.531Z,96469.00
2022-08-21T12:21:58.994Z,96477.56
2022-08-21T12:24:28.632Z,96469.34
2022-08-21T12:26:57.737Z,96463.75
2022-08-21T12:29:28.734Z,96458.09
2022-08-21T12:32:21.261Z,96469.31
2022-08-21T12:34:51.185Z,96468.00
2022-08-21T12:37:23.509Z,96461.06
2022-08-21T12:39:53.727Z,96462.28
2022-08-21T12:42:25.692Z,96472.16
2022-08-21T12:44:59.853Z,96476.28
2022-08-21T12:47:44.425Z,96471.69
2022-08-21T12:50:17.017Z,96467.81
2022-08-21T12:53:20.626Z,96461.25
2022-08-21T12:55:48.134Z,96462.28
2022-08-21T12:58:23.424Z,96473.44
2022-08-21T13:01:05.985Z,96480.50
2022-08-21T13:03:37.795Z,96473.72
2022-08-21T13:06:06.377Z,96476.88
2022-08-21T13:08:40.100Z,96484.50
2022-08-21T13:11:11.334Z,96482.94
2022-08-21T13:13:46.824Z,96491.59
2022-08-21T13:16:23.742Z,96484.63
2022-08-21T13:18:58.455Z,96482.59
2022-08-21T13:21:30.787Z,96478.34
2022-08-21T13:24:38.845Z,96474.03
2022-08-21T13:27:02.331Z,96485.91
2022-08-21T13:29:32.143Z,96482.41
2022-08-21T13:32:02.707Z,96477.72
2022-08-21T13:34:37.734Z,96457.06
2022-08-21T13:37:09.790Z,96447.13
2022-08-21T13:39:36.499Z,96438.06
2022-08-21T13:42:10.106Z,96433.91
2022-08-21T13:44:38.174Z,96427.63
2022-08-21T13:47:07.400Z,96416.91
2022-08-21T13:49:38.325Z,96411.97
2022-08-21T13:52:07.646Z,96413.50
2022-08-21T13:54:38.113Z,96402.09
2022-08-21T13:57:16.165Z,96409.81
2022-08-21T13:59:42.779Z,96392.97
2022-08-21T14:02:14.467Z,96393.75
2022-08-21T14:04:55.295Z,96396.38
2022-08-21T14:07:27.700Z,96391.03
2022-08-21T14:09:55.854Z,96406.06
2022-08-21T14:12:43.434Z,96405.97
2022-08-21T14:15:14.312Z,96411.13
2022-08-21T14:17:42.621Z,96400.69
2022-08-21T14:20:13.190Z,96402.50
2022-08-21T14:22:48.200Z,96412.31
2022-08-21T14:25:20.728Z,96399.00
2022-08-21T14:28:09.963Z,96396.16
2022-08-21T14:30:43.530Z,96382.56
2022-08-21T14:33:13.312Z,96381.78
2022-08-21T14:35:40.454Z,96386.44
2022-08-21T14:38:17.484Z,96389.50
2022-08-21T14:40:48.847Z,96387.59
2022-08-21T14:43:15.430Z,96395.84
2022-08-21T14:45:42.083Z,96387.38
2022-08-21T14:48:09.194Z,96387.97
2022-08-21T14:50:36.015Z,96395.69
2022-08-21T14:53:10.820Z,96392.03
2022-08-21T14:55:58.636Z,96383.44
2022-08-21T14:58:26.430Z,96358.56
2022-08-21T15:00:54.988Z,96358.94
2022-08-21T15:03:25.321Z,96361.25
2022-08-21T15:05:52.316Z,96360.88
2022-08-21T15:08:19.592Z,96358.16
2022-08-21T15:11:08.650Z,96347.09
2022-08-21T15:13:34.229Z,96341.34
2022-08-21T15:16:01.053Z,96342.28
2022-08-21T15:18:30.120Z,96334.44
2022-08-21T15:20:57.304Z,96333.69
2022-08-21T15:23:23.777Z,96325.28
2022-08-21T15:25:51.394Z,96320.28
2022-08-21T15:28:19.292Z,96313.00
2022-08-21T15:30:46.874Z,96315.28
2022-08-21T15:33:13.551Z,96300.53
2022-08-21T15:35:41.079Z,96300.72
2022-08-21T15:38:07.934Z,96297.66
2022-08-21T15:40:39.032Z,96306.50
2022-08-21T15:43:06.593Z,96319.53
2022-08-21T15:45:34.644Z,96314.94
2022-08-21T15:48:02.079Z,96310.72
2022-08-21T15:50:30.162Z,96312.06
2022-08-21T15:52:56.767Z,96315.69
2022-08-21T15:55:24.571Z,96316.84
2022-08-21T15:57:57.293Z,96311.88
2022-08-21T16:00:25.580Z,96316.47
2022-08-21T16:02:58.418Z,96328.34
2022-08-21T16:05:25.165Z,96327.56
2022-08-21T16:07:52.431Z,96320.66
2022-08-21T16:10:22.221Z,96320.06
2022-08-21T16:12:54.479Z,96308.59
2022-08-21T16:15:21.728Z,96317.78
2022-08-21T16:17:49.977Z,96318.66
2022-08-21T16:20:25.449Z,96317.13
2022-08-21T16:22:54.202Z,96321.34
2022-08-21T16:25:21.733Z,96307.94
2022-08-21T16:27:57.388Z,96311.00
2022-08-21T16:30:26.605Z,96320.47
2022-08-21T16:32:53.711Z,96326.72
2022-08-21T16:35:21.347Z,96331.88
2022-08-21T16:37:52.775Z,96325.94
2022-08-21T16:40:20.668Z,96332.59
2022-08-21T16:42:48.778Z,96338.28
2022-08-21T16:45:18.352Z,96343.97
2022-08-21T16:47:44.956Z,96359.97
2022-08-21T16:50:15.949Z,96348.69
2022-08-21T16:52:43.267Z,96354.50
2022-08-21T16:55:09.960Z,96361.22
2022-08-21T16:57:38.100Z,96354.75
2022-08-21T17:00:11.564Z,96356.63
2022-08-21T17:02:42.541Z,96353.16
2022-08-21T17:05:13.778Z,96355.81
2022-08-21T17:07:42.406Z,96353.84
2022-08-21T17:10:10.961Z,96360.09
2022-08-21T17:12:38.146Z,96377.94
2022-08-21T17:15:06.599Z,96381.69
2022-08-21T17:17:36.528Z,96391.47
2022-08-21T17:20:04.490Z,96384.03
2022-08-21T17:22:31.352Z,96386.25
2022-08-21T17:24:58.048Z,96390.47
2022-08-21T17:27:28.216Z,96391.66
2022-08-21T17:29:56.106Z,96402.69
2022-08-21T17:32:23.058Z,96413.56
2022-08-21T17:34:49.693Z,96414.69
2022-08-21T17:37:16.314Z,96413.38
2022-08-21T17:39:43.054Z,96419.72
2022-08-21T17:42:13.728Z,96416.22
2022-08-21T17:44:43.468Z,96420.28
2022-08-21T17:47:10.818Z,96429.63
2022-08-21T17:49:37.573Z,96435.34
2022-08-21T17:52:05.194Z,96433.47
2022-08-21T17:54:31.812Z,96449.06
2022-08-21T17:56:58.592Z,96451.94
2022-08-21T17:59:25.996Z,96446.84
2022-08-21T18:01:54.529Z,96454.97
2022-08-21T18:04:21.113Z,96444.75
2022-08-21T18:06:47.766Z,96449.56
2022-08-21T18:09:14.427Z,96453.94
2022-08-21T18:11:43.106Z,96449.34
2022-08-21T18:14:10.875Z,96461.69
2022-08-21T18:16:37.824Z,96461.69
2022-08-21T18:19:09.227Z,96452.78
2022-08-21T18:21:36.380Z,96463.34
2022-08-21T18:24:03.196Z,96473.22
2022-08-21T18:26:32.932Z,96481.69
2022-08-21T18:29:01.573Z,96485.84
2022-08-21T18:31:31.688Z,96487.19
2022-08-21T18:34:00.990Z,96488.28
2022-08-21T18:36:29.512Z,96488.94
2022-08-21T18:39:13.610Z,96494.22
2022-08-21T18:41:44.917Z,96490.59
2022-08-21T18:44:13.884Z,96489.81
2022-08-21T18:46:41.376Z,96489.63
2022-08-21T18:49:07.968Z,96494.00
2022-08-21T18:51:34.579Z,96488.06
2022-08-21T18:54:01.331Z,96480.28
2022-08-21T18:56:28.728Z,96485.00
2022-08-21T18:58:58.318Z,96476.97
2022-08-21T19:01:25.891Z,96479.28
2022-08-21T19:03:52.827Z,96468.97
2022-08-21T19:06:19.518Z,96460.06
2022-08-21T19:08:46.104Z,96460.84
2022-08-21T19:11:13.316Z,96449.19
2022-08-21T19:13:39.854Z,96445.56
2022-08-21T19:16:09.610Z,96437.88
2022-08-21T19:18:39.980Z,96435.16
2022-08-21T19:21:07.615Z,96436.69
2022-08-21T19:23:35.151Z,96432.06
2022-08-21T19:26:07.446Z,96425.69
2022-08-21T19:28:38.132Z,96420.41
2022-08-21T19:31:29.560Z,96422.84
2022-08-21T19:34:18.910Z,96428.44
2022-08-21T19:36:46.076Z,96424.63
2022-08-21T19:39:17.938Z,96425.16
2022-08-21T19:41:50.627Z,96429.88
2022-08-21T19:44:21.401Z,96439.22
2022-08-21T19:46:51.087Z,96437.16
2022-08-21T19:49:21.207Z,96440.78
2022-08-21T19:51:49.381Z,96441.31
2022-08-21T19:54:20.678Z,96443.94
2022-08-21T19:56:48.654Z,96449.97
2022-08-21T19:59:18.358Z,96457.47
2022-08-21T20:01:51.708Z,96450.75
2022-08-21T20:04:19.444Z,96453.72
2022-08-21T20:06:47.028Z,96448.22
2022-08-21T20:09:14.792Z,96458.63
2022-08-21T20:11:47.899Z,96449.28
2022-08-21T20:14:18.093Z,96445.25
2022-08-21T20:16:47.021Z,96451.06
2022-08-21T20:19:13.684Z,96449.19
2022-08-21T20:21:43.539Z,96448.22
2022-08-21T20:24:14.865Z,96450.28
2022-08-21T20:26:48.711Z,96451.06
2022-08-21T20:29:16.963Z,96455.47
2022-08-21T20:31:50.636Z,96469.19
2022-08-21T20:34:17.523Z,96461.06
2022-08-21T20:36:44.904Z,96467.63
2022-08-21T20:39:14.560Z,96464.78
2022-08-21T20:41:41.722Z,96452.16
2022-08-21T20:44:12.700Z,96451.94
2022-08-21T20:46:39.888Z,96460.25
2022-08-21T20:49:09.285Z,96467.81
2022-08-21T20:51:44.753Z,96470.47
2022-08-21T20:54:33.437Z,96469.34
2022-08-21T20:57:27.546Z,96467.16
2022-08-21T21:00:01.321Z,96456.19
2022-08-21T21:02:49.729Z,96457.97
2022-08-21T21:05:29.982Z,96460.50
2022-08-21T21:08:05.866Z,96456.84
2022-08-21T21:10:48.289Z,96459.50
2022-08-21T21:13:24.001Z,96463.88
2022-08-21T21:15:54.781Z,96465.66
2022-08-21T21:18:44.994Z,96466.75
2022-08-21T21:24:27.659Z,96465.94
2022-08-21T21:27:12.081Z,96477.75
2022-08-21T21:29:57.295Z,96484.06
2022-08-21T21:32:25.128Z,96493.31
2022-08-21T21:34:51.851Z,96488.59
2022-08-21T21:37:42.267Z,96479.44
2022-08-21T21:40:11.891Z,96478.34
2022-08-21T21:42:41.213Z,96479.66
2022-08-21T21:45:13.449Z,96482.06
2022-08-21T21:48:22.430Z,96496.25
2022-08-21T21:51:00.767Z,96493.25
2022-08-21T21:53:30.591Z,96492.13
2022-08-21T21:56:14.396Z,96492.69
2022-08-21T21:58:54.815Z,96489.75
2022-08-21T22:01:46.696Z,96489.75
2022-08-21T22:04:17.147Z,96497.75
2022-08-21T22:06:59.138Z,96490.50
2022-08-21T22:09:44.282Z,96491.06
2022-08-21T22:12:49.882Z,96491.69
2022-08-21T22:15:27.804Z,96490.59
2022-08-21T22:18:10.442Z,96494.34
2022-08-21T22:20:50.729Z,96488.22
2022-08-21T22:23:21.575Z,96479.09
2022-08-21T22:25:52.266Z,96475.72
2022-08-21T22:31:21.020Z,96490.66
2022-08-21T22:34:03.055Z,96486.22
2022-08-21T22:36:34.155Z,96485.28
2022-08-21T22:39:00.828Z,96485.03
2022-08-21T22:41:31.255Z,96485.75
2022-08-21T22:44:06.162Z,96498.75
2022-08-21T22:46:37.197Z,96493.34
2022-08-21T22:49:38.437Z,96499.03
2022-08-21T22:52:18.080Z,96505.22
2022-08-21T22:54:45.392Z,96499.69
2022-08-21T22:57:31.532Z,96496.72
2022-08-21T23:00:34.077Z,96481.41
2022-08-21T23:03:03.540Z,96489.63
2022-08-21T23:05:30.657Z,96483.94
2022-08-21T23:08:14.398Z,96492.78
2022-08-21T23:10:56.491Z,96492.09
2022-08-21T23:13:23.075Z,96494.09
2022-08-21T23:16:20.759Z,96487.59
2022-08-21T23:19:11.450Z,96485.53
2022-08-21T23:21:59.722Z,96479.06
2022-08-21T23:27:42.459Z,96480.50
2022-08-21T23:30:15.340Z,96484.56
2022-08-21T23:33:09.672Z,96471.09
2022-08-21T23:36:04.937Z,96471.09
2022-08-21T23:39:02.587Z,96471.53
2022-08-21T23:42:02.434Z,96482.31
2022-08-21T23:44:55.068Z,96473.97
2022-08-21T23:47:32.227Z,96474.63
2022-08-21T23:53:08.867Z,96479.25
2022-08-21T23:56:18.101Z,96472.75
2022-08-21T23:58:58.739Z,96478.69
